M I D A S
Marine Information and Data Acquisition System
Tripno 1855 of the Zeeleeuw from 2010-04-06 09:10:00 to 2010-04-06 20:05:00
Back to CruiseResearch ActivitiesStationsMapUnderway DataData graphs

EquipmentUnitsComment
TimeDGPSUTC
LatitudeDGPSDM.mWGS84
LongitudeDGPSDM.mWGS84
HeadingGyrodeg 
SOGDGPSknotsSpeed over ground
COGDGPSdegCourse over ground
DepthEcho soundermeters200 kHz
Missing or incorrect values are displayed as -999
Navigation data collected by the RV Zeeleeuw from 2010-04-06 09:10:00 to 2010-04-06 20:05:00
                                                                                    Next 1000 lines
Time Latitude Longitude Heading SOG COG Depth
2010-04-06 09:10:20 51°32.413 2°55.42 103 2 84 -999
2010-04-06 09:10:30 51°32.414 2°55.43 103 2 84 -999
2010-04-06 09:10:40 51°32.415 2°55.44 103 2 84 -999
2010-04-06 09:10:50 51°32.415 2°55.45 103 2 84 -999
2010-04-06 09:11:00 51°32.416 2°55.46 106 2.1 89 -999
2010-04-06 09:11:10 51°32.415 2°55.469 106 2.1 89 -999
2010-04-06 09:11:20 51°32.415 2°55.478 106 2.1 89 -999
2010-04-06 09:11:30 51°32.414 2°55.486 106 2.1 89 -999
2010-04-06 09:11:40 51°32.412 2°55.494 106 2.1 89 -999
2010-04-06 09:11:50 51°32.411 2°55.501 106 2.1 89 -999
2010-04-06 09:12:00 51°32.408 2°55.508 132.6 1.69 119 -999
2010-04-06 09:12:10 51°32.406 2°55.514 132.6 1.69 119 -999
2010-04-06 09:12:20 51°32.403 2°55.52 132.6 1.69 119 -999
2010-04-06 09:12:30 51°32.4 2°55.525 132.6 1.69 119 -999
2010-04-06 09:12:40 51°32.397 2°55.529 132.6 1.69 119 -999
2010-04-06 09:12:50 51°32.393 2°55.532 132.6 1.69 119 -999
2010-04-06 09:13:00 51°32.389 2°55.535 161.9 1.5 160 -999
2010-04-06 09:13:10 51°32.385 2°55.536 161.9 1.5 160 -999
2010-04-06 09:13:20 51°32.381 2°55.537 161.9 1.5 160 -999
2010-04-06 09:13:30 51°32.377 2°55.536 161.9 1.5 160 -999
2010-04-06 09:13:40 51°32.373 2°55.534 161.9 1.5 160 -999
2010-04-06 09:13:50 51°32.37 2°55.531 161.9 1.5 160 -999
2010-04-06 09:14:00 51°32.366 2°55.528 199.6 1.6 214 -999
2010-04-06 09:14:10 51°32.362 2°55.523 199.6 1.6 214 -999
2010-04-06 09:14:20 51°32.358 2°55.518 199.6 1.6 214 -999
2010-04-06 09:14:30 51°32.355 2°55.511 199.6 1.6 214 -999
2010-04-06 09:14:40 51°32.353 2°55.504 199.6 1.6 214 -999
2010-04-06 09:14:50 51°32.351 2°55.497 199.6 1.6 214 -999
2010-04-06 09:15:00 51°32.349 2°55.489 236.1 1.8 256 -999
2010-04-06 09:15:10 51°32.348 2°55.481 236.1 1.8 256 -999
2010-04-06 09:15:20 51°32.348 2°55.474 236.1 1.8 256 -999
2010-04-06 09:15:30 51°32.347 2°55.467 236.1 1.8 256 -999
2010-04-06 09:15:40 51°32.347 2°55.459 236.1 1.8 256 -999
2010-04-06 09:15:50 51°32.347 2°55.452 236.1 1.8 256 -999
2010-04-06 09:16:00 51°32.348 2°55.446 247.8 1.5 274 -999
2010-04-06 09:16:10 51°32.348 2°55.439 247.8 1.5 274 -999
2010-04-06 09:16:20 51°32.348 2°55.432 247.8 1.5 274 -999
2010-04-06 09:16:30 51°32.349 2°55.426 247.8 1.5 274 -999
2010-04-06 09:16:40 51°32.349 2°55.42 247.8 1.5 274 -999
2010-04-06 09:16:50 51°32.35 2°55.415 247.8 1.5 274 -999
2010-04-06 09:17:00 51°32.35 2°55.409 244.5 1.19 280 -999
2010-04-06 09:17:10 51°32.351 2°55.404 244.5 1.19 280 -999
2010-04-06 09:17:20 51°32.351 2°55.399 244.5 1.19 280 -999
2010-04-06 09:17:30 51°32.352 2°55.394 244.5 1.19 280 -999
2010-04-06 09:17:40 51°32.353 2°55.389 244.5 1.19 280 -999
2010-04-06 09:17:50 51°32.354 2°55.385 244.5 1.19 280 -999
2010-04-06 09:18:00 51°32.355 2°55.38 239 1 288 -999
2010-04-06 09:18:10 51°32.355 2°55.377 239 1 288 -999
2010-04-06 09:18:20 51°32.356 2°55.373 239 1 288 -999
2010-04-06 09:18:30 51°32.357 2°55.369 239 1 288 -999
2010-04-06 09:18:40 51°32.358 2°55.366 239 1 288 -999
2010-04-06 09:18:50 51°32.359 2°55.362 239 1 288 -999
2010-04-06 09:19:00 51°32.36 2°55.359 235.4 0.9 297 -999
2010-04-06 09:19:10 51°32.361 2°55.356 235.4 0.9 297 -999
2010-04-06 09:19:20 51°32.363 2°55.352 235.4 0.9 297 -999
2010-04-06 09:19:30 51°32.364 2°55.349 235.4 0.9 297 -999
2010-04-06 09:19:40 51°32.365 2°55.346 235.4 0.9 297 -999
2010-04-06 09:19:50 51°32.366 2°55.343 235.4 0.9 297 -999
2010-04-06 09:20:00 51°32.367 2°55.339 231.5 1 277 -999
2010-04-06 09:20:10 51°32.367 2°55.334 231.5 1 277 -999
2010-04-06 09:20:20 51°32.366 2°55.329 231.5 1 277 -999
2010-04-06 09:20:30 51°32.363 2°55.324 231.5 1 277 -999
2010-04-06 09:20:40 51°32.36 2°55.318 231.5 1 277 -999
2010-04-06 09:20:50 51°32.358 2°55.315 231.5 1 277 -999
2010-04-06 09:21:00 51°32.354 2°55.311 192 1.6 205 -999
2010-04-06 09:21:10 51°32.35 2°55.309 192 1.6 205 -999
2010-04-06 09:21:20 51°32.345 2°55.309 192 1.6 205 -999
2010-04-06 09:21:30 51°32.341 2°55.31 192 1.6 205 -999
2010-04-06 09:21:40 51°32.336 2°55.313 192 1.6 205 -999
2010-04-06 09:21:50 51°32.332 2°55.316 192 1.6 205 -999
2010-04-06 09:22:00 51°32.328 2°55.322 139.9 1.8 133 -999
2010-04-06 09:22:10 51°32.325 2°55.328 139.9 1.8 133 -999
2010-04-06 09:22:20 51°32.324 2°55.336 139.9 1.8 133 -999
2010-04-06 09:22:30 51°32.323 2°55.346 139.9 1.8 133 -999
2010-04-06 09:22:40 51°32.323 2°55.355 139.9 1.8 133 -999
2010-04-06 09:22:50 51°32.325 2°55.366 139.9 1.8 133 -999
2010-04-06 09:23:00 51°32.328 2°55.378 76.5 3.29 61 -999
2010-04-06 09:23:10 51°32.334 2°55.39 76.5 3.29 61 -999
2010-04-06 09:23:20 51°32.343 2°55.401 76.5 3.29 61 -999
2010-04-06 09:23:30 51°32.355 2°55.409 76.5 3.29 61 -999
2010-04-06 09:23:40 51°32.369 2°55.411 76.5 3.29 61 -999
2010-04-06 09:23:50 51°32.386 2°55.407 76.5 3.29 61 -999
2010-04-06 09:24:00 51°32.404 2°55.398 345.6 6.9 338 -999
2010-04-06 09:24:10 51°32.421 2°55.382 345.6 6.9 338 -999
2010-04-06 09:24:20 51°32.44 2°55.362 345.6 6.9 338 -999
2010-04-06 09:24:30 51°32.462 2°55.339 345.6 6.9 338 -999
2010-04-06 09:24:40 51°32.489 2°55.314 345.6 6.9 338 -999
2010-04-06 09:24:50 51°32.514 2°55.295 345.6 6.9 338 -999
2010-04-06 09:25:00 51°32.542 2°55.272 336.3 11.5 331 -999
2010-04-06 09:25:10 51°32.569 2°55.244 336.3 11.5 331 -999
2010-04-06 09:25:20 51°32.597 2°55.206 336.3 11.5 331 -999
2010-04-06 09:25:30 51°32.62 2°55.174 336.3 11.5 331 -999
2010-04-06 09:25:40 51°32.645 2°55.135 336.3 11.5 331 -999
2010-04-06 09:25:50 51°32.672 2°55.094 336.3 11.5 331 -999
2010-04-06 09:26:00 51°32.699 2°55.051 317 13.9 314 -999
2010-04-06 09:26:10 51°32.726 2°55.006 317 13.9 314 -999
2010-04-06 09:26:20 51°32.754 2°54.962 317 13.9 314 -999
2010-04-06 09:26:30 51°32.786 2°54.929 317 13.9 314 -999
2010-04-06 09:26:40 51°32.821 2°54.906 317 13.9 314 -999
2010-04-06 09:26:50 51°32.858 2°54.887 317 13.9 314 -999
2010-04-06 09:27:00 51°32.895 2°54.869 345.6 14 344 -999
2010-04-06 09:27:10 51°32.933 2°54.855 345.6 14 344 -999
2010-04-06 09:27:20 51°32.971 2°54.847 345.6 14 344 -999
2010-04-06 09:27:30 51°33.01 2°54.846 345.6 14 344 -999
2010-04-06 09:27:40 51°33.048 2°54.852 345.6 14 344 -999
2010-04-06 09:27:50 51°33.084 2°54.87 345.6 14 344 -999
2010-04-06 09:28:00 51°33.117 2°54.899 29.6 13.4 31 -999
2010-04-06 09:28:10 51°33.148 2°54.934 29.6 13.4 31 -999
2010-04-06 09:28:20 51°33.179 2°54.967 29.6 13.4 31 -999
2010-04-06 09:28:30 51°33.211 2°55 29.6 13.4 31 -999
2010-04-06 09:28:40 51°33.24 2°55.038 29.6 13.4 31 -999
2010-04-06 09:28:50 51°33.266 2°55.082 29.6 13.4 31 -999
2010-04-06 09:29:00 51°33.285 2°55.133 58.8 13.19 64 -999
2010-04-06 09:29:10 51°33.295 2°55.185 58.8 13.19 64 -999
2010-04-06 09:29:20 51°33.297 2°55.235 58.8 13.19 64 -999
2010-04-06 09:29:30 51°33.295 2°55.281 58.8 13.19 64 -999
2010-04-06 09:29:40 51°33.291 2°55.325 58.8 13.19 64 -999
2010-04-06 09:29:50 51°33.287 2°55.364 58.8 13.19 64 -999
2010-04-06 09:30:00 51°33.282 2°55.398 104.2 7.79 106 -999
2010-04-06 09:30:10 51°33.277 2°55.43 104.2 7.79 106 -999
2010-04-06 09:30:20 51°33.27 2°55.462 104.2 7.79 106 -999
2010-04-06 09:30:30 51°33.264 2°55.486 104.2 7.79 106 -999
2010-04-06 09:30:40 51°33.258 2°55.512 104.2 7.79 106 -999
2010-04-06 09:30:50 51°33.252 2°55.536 104.2 7.79 106 -999
2010-04-06 09:31:00 51°33.246 2°55.558 114 5.09 112 -999
2010-04-06 09:31:10 51°33.241 2°55.578 114 5.09 112 -999
2010-04-06 09:31:20 51°33.236 2°55.596 114 5.09 112 -999
2010-04-06 09:31:30 51°33.231 2°55.612 114 5.09 112 -999
2010-04-06 09:31:40 51°33.226 2°55.627 114 5.09 112 -999
2010-04-06 09:31:50 51°33.222 2°55.641 114 5.09 112 -999
2010-04-06 09:32:00 51°33.218 2°55.654 119 3.2 115 -999
2010-04-06 09:32:10 51°33.214 2°55.667 119 3.2 115 -999
2010-04-06 09:32:20 51°33.211 2°55.679 119 3.2 115 -999
2010-04-06 09:32:30 51°33.209 2°55.689 119 3.2 115 -999
2010-04-06 09:32:40 51°33.207 2°55.7 119 3.2 115 -999
2010-04-06 09:32:50 51°33.205 2°55.71 119 3.2 115 -999
2010-04-06 09:33:00 51°33.204 2°55.72 109.7 2.29 101 -999
2010-04-06 09:33:10 51°33.203 2°55.73 109.7 2.29 101 -999
2010-04-06 09:33:20 51°33.202 2°55.739 109.7 2.29 101 -999
2010-04-06 09:33:30 51°33.201 2°55.747 109.7 2.29 101 -999
2010-04-06 09:33:40 51°33.201 2°55.755 109.7 2.29 101 -999
2010-04-06 09:33:50 51°33.201 2°55.762 109.7 2.29 101 -999
2010-04-06 09:34:00 51°33.201 2°55.769 104.2 1.5 91 -999
2010-04-06 09:34:10 51°33.201 2°55.776 104.2 1.5 91 -999
2010-04-06 09:34:20 51°33.201 2°55.782 104.2 1.5 91 -999
2010-04-06 09:34:30 51°33.201 2°55.787 104.2 1.5 91 -999
2010-04-06 09:34:40 51°33.202 2°55.792 104.2 1.5 91 -999
2010-04-06 09:34:50 51°33.202 2°55.797 104.2 1.5 91 -999
2010-04-06 09:35:00 51°33.202 2°55.802 104.7 1 85 -999
2010-04-06 09:35:10 51°33.203 2°55.806 104.7 1 85 -999
2010-04-06 09:35:20 51°33.204 2°55.81 104.7 1 85 -999
2010-04-06 09:35:30 51°33.204 2°55.813 104.7 1 85 -999
2010-04-06 09:35:40 51°33.205 2°55.816 104.7 1 85 -999
2010-04-06 09:35:50 51°33.205 2°55.819 104.7 1 85 -999
2010-04-06 09:36:00 51°33.206 2°55.822 105 0.69 68 -999
2010-04-06 09:36:10 51°33.207 2°55.824 105 0.69 68 -999
2010-04-06 09:36:20 51°33.208 2°55.827 105 0.69 68 -999
2010-04-06 09:36:30 51°33.209 2°55.829 105 0.69 68 -999
2010-04-06 09:36:40 51°33.21 2°55.83 105 0.69 68 -999
2010-04-06 09:36:50 51°33.211 2°55.832 105 0.69 68 -999
2010-04-06 09:37:00 51°33.212 2°55.833 107.5 0.4 42 -999
2010-04-06 09:37:10 51°33.213 2°55.834 107.5 0.4 42 -999
2010-04-06 09:37:20 51°33.213 2°55.835 107.5 0.4 42 -999
2010-04-06 09:37:30 51°33.214 2°55.835 107.5 0.4 42 -999
2010-04-06 09:37:40 51°33.215 2°55.836 107.5 0.4 42 -999
2010-04-06 09:37:50 51°33.216 2°55.836 107.5 0.4 42 -999
2010-04-06 09:38:00 51°33.217 2°55.837 110.7 0.4 10 -999
2010-04-06 09:38:10 51°33.217 2°55.837 110.7 0.4 10 -999
2010-04-06 09:38:20 51°33.218 2°55.837 110.7 0.4 10 -999
2010-04-06 09:38:30 51°33.22 2°55.837 110.7 0.4 10 -999
2010-04-06 09:38:40 51°33.221 2°55.836 110.7 0.4 10 -999
2010-04-06 09:38:50 51°33.222 2°55.836 110.7 0.4 10 -999
2010-04-06 09:39:00 51°33.223 2°55.836 113.2 0.4 344 -999
2010-04-06 09:39:10 51°33.224 2°55.835 113.2 0.4 344 -999
2010-04-06 09:39:20 51°33.225 2°55.834 113.2 0.4 344 -999
2010-04-06 09:39:30 51°33.227 2°55.834 113.2 0.4 344 -999
2010-04-06 09:39:40 51°33.228 2°55.833 113.2 0.4 344 -999
2010-04-06 09:39:50 51°33.229 2°55.832 113.2 0.4 344 -999
2010-04-06 09:40:00 51°33.23 2°55.831 110.7 0.5 337 -999
2010-04-06 09:40:10 51°33.232 2°55.83 110.7 0.5 337 -999
2010-04-06 09:40:20 51°33.233 2°55.829 110.7 0.5 337 -999
2010-04-06 09:40:30 51°33.235 2°55.828 110.7 0.5 337 -999
2010-04-06 09:40:40 51°33.236 2°55.827 110.7 0.5 337 -999
2010-04-06 09:40:50 51°33.238 2°55.826 110.7 0.5 337 -999
2010-04-06 09:41:00 51°33.239 2°55.825 104.2 0.69 335 -999
2010-04-06 09:41:10 51°33.241 2°55.824 104.2 0.69 335 -999
2010-04-06 09:41:20 51°33.242 2°55.822 104.2 0.69 335 -999
2010-04-06 09:41:30 51°33.244 2°55.821 104.2 0.69 335 -999
2010-04-06 09:41:40 51°33.246 2°55.819 104.2 0.69 335 -999
2010-04-06 09:41:50 51°33.247 2°55.817 104.2 0.69 335 -999
2010-04-06 09:42:00 51°33.249 2°55.816 93 0.69 327 -999
2010-04-06 09:42:10 51°33.25 2°55.814 93 0.69 327 -999
2010-04-06 09:42:20 51°33.252 2°55.812 93 0.69 327 -999
2010-04-06 09:42:30 51°33.253 2°55.811 93 0.69 327 -999
2010-04-06 09:42:40 51°33.255 2°55.809 93 0.69 327 -999
2010-04-06 09:42:50 51°33.256 2°55.807 93 0.69 327 -999
2010-04-06 09:43:00 51°33.258 2°55.805 81.7 0.8 327 -999
2010-04-06 09:43:10 51°33.26 2°55.803 81.7 0.8 327 -999
2010-04-06 09:43:20 51°33.261 2°55.801 81.7 0.8 327 -999
2010-04-06 09:43:30 51°33.263 2°55.799 81.7 0.8 327 -999
2010-04-06 09:43:40 51°33.264 2°55.797 81.7 0.8 327 -999
2010-04-06 09:43:50 51°33.266 2°55.796 81.7 0.8 327 -999
2010-04-06 09:44:00 51°33.268 2°55.793 71.7 0.69 322 -999
2010-04-06 09:44:10 51°33.269 2°55.791 71.7 0.69 322 -999
2010-04-06 09:44:20 51°33.27 2°55.789 71.7 0.69 322 -999
2010-04-06 09:44:30 51°33.272 2°55.787 71.7 0.69 322 -999
2010-04-06 09:44:40 51°33.274 2°55.785 71.7 0.69 322 -999
2010-04-06 09:44:50 51°33.275 2°55.783 71.7 0.69 322 -999
2010-04-06 09:45:00 51°33.277 2°55.781 66.2 0.69 319 -999
2010-04-06 09:45:10 51°33.279 2°55.779 66.2 0.69 319 -999
2010-04-06 09:45:20 51°33.28 2°55.777 66.2 0.69 319 -999
2010-04-06 09:45:30 51°33.281 2°55.775 66.2 0.69 319 -999
2010-04-06 09:45:40 51°33.283 2°55.773 66.2 0.69 319 -999
2010-04-06 09:45:50 51°33.284 2°55.771 66.2 0.69 319 -999
2010-04-06 09:46:00 51°33.286 2°55.769 63.6 0.8 323 -999
2010-04-06 09:46:10 51°33.288 2°55.767 63.6 0.8 323 -999
2010-04-06 09:46:20 51°33.289 2°55.765 63.6 0.8 323 -999
2010-04-06 09:46:30 51°33.291 2°55.763 63.6 0.8 323 -999
2010-04-06 09:46:40 51°33.292 2°55.761 63.6 0.8 323 -999
2010-04-06 09:46:50 51°33.294 2°55.759 63.6 0.8 323 -999
2010-04-06 09:47:00 51°33.296 2°55.757 62.5 0.69 328 -999
2010-04-06 09:47:10 51°33.298 2°55.756 62.5 0.69 328 -999
2010-04-06 09:47:20 51°33.299 2°55.754 62.5 0.69 328 -999
2010-04-06 09:47:30 51°33.3 2°55.752 62.5 0.69 328 -999
2010-04-06 09:47:40 51°33.302 2°55.751 62.5 0.69 328 -999
2010-04-06 09:47:50 51°33.304 2°55.749 62.5 0.69 328 -999
2010-04-06 09:48:00 51°33.305 2°55.747 64 0.59 327 -999
2010-04-06 09:48:10 51°33.307 2°55.746 64 0.59 327 -999
2010-04-06 09:48:20 51°33.309 2°55.744 64 0.59 327 -999
2010-04-06 09:48:30 51°33.31 2°55.743 64 0.59 327 -999
2010-04-06 09:48:40 51°33.312 2°55.742 64 0.59 327 -999
2010-04-06 09:48:50 51°33.314 2°55.74 64 0.59 327 -999
2010-04-06 09:49:00 51°33.316 2°55.739 68.7 0.69 333 -999
2010-04-06 09:49:10 51°33.317 2°55.738 68.7 0.69 333 -999
2010-04-06 09:49:20 51°33.318 2°55.736 68.7 0.69 333 -999
2010-04-06 09:49:30 51°33.319 2°55.735 68.7 0.69 333 -999
2010-04-06 09:49:40 51°33.321 2°55.734 68.7 0.69 333 -999
2010-04-06 09:49:50 51°33.323 2°55.733 68.7 0.69 333 -999
2010-04-06 09:50:00 51°33.324 2°55.731 71.9 0.69 332 -999
2010-04-06 09:50:10 51°33.325 2°55.73 71.9 0.69 332 -999
2010-04-06 09:50:20 51°33.327 2°55.729 71.9 0.69 332 -999
2010-04-06 09:50:30 51°33.328 2°55.728 71.9 0.69 332 -999
2010-04-06 09:50:40 51°33.329 2°55.727 71.9 0.69 332 -999
2010-04-06 09:50:50 51°33.33 2°55.726 71.9 0.69 332 -999
2010-04-06 09:51:00 51°33.332 2°55.724 74.7 0.5 329 -999
2010-04-06 09:51:10 51°33.333 2°55.723 74.7 0.5 329 -999
2010-04-06 09:51:20 51°33.335 2°55.722 74.7 0.5 329 -999
2010-04-06 09:51:30 51°33.336 2°55.721 74.7 0.5 329 -999
2010-04-06 09:51:40 51°33.337 2°55.719 74.7 0.5 329 -999
2010-04-06 09:51:50 51°33.339 2°55.718 74.7 0.5 329 -999
2010-04-06 09:52:00 51°33.34 2°55.717 76.4 0.59 330 -999
2010-04-06 09:52:10 51°33.341 2°55.716 76.4 0.59 330 -999
2010-04-06 09:52:20 51°33.343 2°55.714 76.4 0.59 330 -999
2010-04-06 09:52:30 51°33.344 2°55.713 76.4 0.59 330 -999
2010-04-06 09:52:40 51°33.346 2°55.711 76.4 0.59 330 -999
2010-04-06 09:52:50 51°33.347 2°55.71 76.4 0.59 330 -999
2010-04-06 09:53:00 51°33.348 2°55.709 76.7 0.5 324 -999
2010-04-06 09:53:10 51°33.349 2°55.707 76.7 0.5 324 -999
2010-04-06 09:53:20 51°33.351 2°55.706 76.7 0.5 324 -999
2010-04-06 09:53:30 51°33.352 2°55.705 76.7 0.5 324 -999
2010-04-06 09:53:40 51°33.353 2°55.703 76.7 0.5 324 -999
2010-04-06 09:53:50 51°33.355 2°55.702 76.7 0.5 324 -999
2010-04-06 09:54:00 51°33.356 2°55.7 77.4 0.59 324 -999
2010-04-06 09:54:10 51°33.358 2°55.699 77.4 0.59 324 -999
2010-04-06 09:54:20 51°33.359 2°55.697 77.4 0.59 324 -999
2010-04-06 09:54:30 51°33.36 2°55.696 77.4 0.59 324 -999
2010-04-06 09:54:40 51°33.362 2°55.695 77.4 0.59 324 -999
2010-04-06 09:54:50 51°33.363 2°55.693 77.4 0.59 324 -999
2010-04-06 09:55:00 51°33.364 2°55.692 79.9 0.59 327 -999
2010-04-06 09:55:10 51°33.366 2°55.69 79.9 0.59 327 -999
2010-04-06 09:55:20 51°33.367 2°55.689 79.9 0.59 327 -999
2010-04-06 09:55:30 51°33.368 2°55.687 79.9 0.59 327 -999
2010-04-06 09:55:40 51°33.37 2°55.686 79.9 0.59 327 -999
2010-04-06 09:55:50 51°33.371 2°55.685 79.9 0.59 327 -999
2010-04-06 09:56:00 51°33.372 2°55.683 82.5 0.59 329 -999
2010-04-06 09:56:10 51°33.373 2°55.682 82.5 0.59 329 -999
2010-04-06 09:56:20 51°33.375 2°55.68 82.5 0.59 329 -999
2010-04-06 09:56:30 51°33.376 2°55.679 82.5 0.59 329 -999
2010-04-06 09:56:40 51°33.377 2°55.677 82.5 0.59 329 -999
2010-04-06 09:56:50 51°33.379 2°55.676 82.5 0.59 329 -999
2010-04-06 09:57:00 51°33.38 2°55.674 85 0.59 323 -999
2010-04-06 09:57:10 51°33.381 2°55.673 85 0.59 323 -999
2010-04-06 09:57:20 51°33.382 2°55.671 85 0.59 323 -999
2010-04-06 09:57:30 51°33.384 2°55.67 85 0.59 323 -999
2010-04-06 09:57:40 51°33.385 2°55.668 85 0.59 323 -999
2010-04-06 09:57:50 51°33.386 2°55.666 85 0.59 323 -999
2010-04-06 09:58:00 51°33.387 2°55.664 86.5 0.59 317 -999
2010-04-06 09:58:10 51°33.389 2°55.663 86.5 0.59 317 -999
2010-04-06 09:58:20 51°33.39 2°55.661 86.5 0.59 317 -999
2010-04-06 09:58:30 51°33.391 2°55.659 86.5 0.59 317 -999
2010-04-06 09:58:40 51°33.393 2°55.658 86.5 0.59 317 -999
2010-04-06 09:58:50 51°33.394 2°55.656 86.5 0.59 317 -999
2010-04-06 09:59:00 51°33.395 2°55.654 86.4 0.59 316 -999
2010-04-06 09:59:10 51°33.396 2°55.653 86.4 0.59 316 -999
2010-04-06 09:59:20 51°33.397 2°55.651 86.4 0.59 316 -999
2010-04-06 09:59:30 51°33.399 2°55.649 86.4 0.59 316 -999
2010-04-06 09:59:40 51°33.4 2°55.647 86.4 0.59 316 -999
2010-04-06 09:59:50 51°33.401 2°55.645 86.4 0.59 316 -999
2010-04-06 10:00:00 51°33.402 2°55.643 88.5 0.59 313 -999
2010-04-06 10:00:10 51°33.404 2°55.641 88.5 0.59 313 -999
2010-04-06 10:00:20 51°33.405 2°55.64 88.5 0.59 313 -999
2010-04-06 10:00:30 51°33.406 2°55.638 88.5 0.59 313 -999
2010-04-06 10:00:40 51°33.407 2°55.636 88.5 0.59 313 -999
2010-04-06 10:00:50 51°33.408 2°55.634 88.5 0.59 313 -999
2010-04-06 10:01:00 51°33.41 2°55.632 84.4 0.69 317 -999
2010-04-06 10:01:10 51°33.411 2°55.629 84.4 0.69 317 -999
2010-04-06 10:01:20 51°33.412 2°55.627 84.4 0.69 317 -999
2010-04-06 10:01:30 51°33.414 2°55.625 84.4 0.69 317 -999
2010-04-06 10:01:40 51°33.415 2°55.623 84.4 0.69 317 -999
2010-04-06 10:01:50 51°33.417 2°55.621 84.4 0.69 317 -999
2010-04-06 10:02:00 51°33.418 2°55.619 79 0.69 316 -999
2010-04-06 10:02:10 51°33.419 2°55.617 79 0.69 316 -999
2010-04-06 10:02:20 51°33.421 2°55.615 79 0.69 316 -999
2010-04-06 10:02:30 51°33.422 2°55.612 79 0.69 316 -999
2010-04-06 10:02:40 51°33.424 2°55.61 79 0.69 316 -999
2010-04-06 10:02:50 51°33.425 2°55.608 79 0.69 316 -999
2010-04-06 10:03:00 51°33.426 2°55.606 75.5 0.59 315 -999
2010-04-06 10:03:10 51°33.428 2°55.604 75.5 0.59 315 -999
2010-04-06 10:03:20 51°33.429 2°55.602 75.5 0.59 315 -999
2010-04-06 10:03:30 51°33.43 2°55.6 75.5 0.59 315 -999
2010-04-06 10:03:40 51°33.432 2°55.598 75.5 0.59 315 -999
2010-04-06 10:03:50 51°33.433 2°55.596 75.5 0.59 315 -999
2010-04-06 10:04:00 51°33.434 2°55.594 77.7 0.59 320 -999
2010-04-06 10:04:10 51°33.435 2°55.592 77.7 0.59 320 -999
2010-04-06 10:04:20 51°33.437 2°55.59 77.7 0.59 320 -999
2010-04-06 10:04:30 51°33.438 2°55.588 77.7 0.59 320 -999
2010-04-06 10:04:40 51°33.44 2°55.586 77.7 0.59 320 -999
2010-04-06 10:04:50 51°33.441 2°55.584 77.7 0.59 320 -999
2010-04-06 10:05:00 51°33.442 2°55.582 81.5 0.59 318 -999
2010-04-06 10:05:10 51°33.443 2°55.581 81.5 0.59 318 -999
2010-04-06 10:05:20 51°33.445 2°55.579 81.5 0.59 318 -999
2010-04-06 10:05:30 51°33.447 2°55.581 81.5 0.59 318 -999
2010-04-06 10:05:40 51°33.449 2°55.585 81.5 0.59 318 -999
2010-04-06 10:05:50 51°33.452 2°55.591 81.5 0.59 318 -999
2010-04-06 10:06:00 51°33.456 2°55.597 55.7 2.2 39 -999
2010-04-06 10:06:10 51°33.462 2°55.603 55.7 2.2 39 -999
2010-04-06 10:06:20 51°33.47 2°55.607 55.7 2.2 39 -999
2010-04-06 10:06:30 51°33.478 2°55.609 55.7 2.2 39 -999
2010-04-06 10:06:40 51°33.488 2°55.608 55.7 2.2 39 -999
2010-04-06 10:06:50 51°33.498 2°55.603 55.7 2.2 39 -999
2010-04-06 10:07:00 51°33.508 2°55.594 340.3 4 328 -999
2010-04-06 10:07:10 51°33.516 2°55.583 340.3 4 328 -999
2010-04-06 10:07:20 51°33.524 2°55.569 340.3 4 328 -999
2010-04-06 10:07:30 51°33.531 2°55.553 340.3 4 328 -999
2010-04-06 10:07:40 51°33.537 2°55.535 340.3 4 328 -999
2010-04-06 10:07:50 51°33.543 2°55.516 340.3 4 328 -999
2010-04-06 10:08:00 51°33.548 2°55.498 295 4.5 293 -999
2010-04-06 10:08:10 51°33.552 2°55.479 295 4.5 293 -999
2010-04-06 10:08:20 51°33.557 2°55.459 295 4.5 293 -999
2010-04-06 10:08:30 51°33.56 2°55.443 295 4.5 293 -999
2010-04-06 10:08:40 51°33.563 2°55.425 295 4.5 293 -999
2010-04-06 10:08:50 51°33.566 2°55.407 295 4.5 293 -999
2010-04-06 10:09:00 51°33.569 2°55.39 282.8 4 286 -999
2010-04-06 10:09:10 51°33.571 2°55.373 282.8 4 286 -999
2010-04-06 10:09:20 51°33.573 2°55.356 282.8 4 286 -999
2010-04-06 10:09:30 51°33.575 2°55.339 282.8 4 286 -999
2010-04-06 10:09:40 51°33.577 2°55.323 282.8 4 286 -999
2010-04-06 10:09:50 51°33.578 2°55.307 282.8 4 286 -999
2010-04-06 10:10:00 51°33.579 2°55.293 273.1 3.2 276 -999
2010-04-06 10:10:10 51°33.58 2°55.278 273.1 3.2 276 -999
2010-04-06 10:10:20 51°33.581 2°55.265 273.1 3.2 276 -999
2010-04-06 10:10:30 51°33.582 2°55.252 273.1 3.2 276 -999
2010-04-06 10:10:40 51°33.583 2°55.238 273.1 3.2 276 -999
2010-04-06 10:10:50 51°33.584 2°55.224 273.1 3.2 276 -999
2010-04-06 10:11:00 51°33.587 2°55.209 286.3 3.39 289 -999
2010-04-06 10:11:10 51°33.591 2°55.195 286.3 3.39 289 -999
2010-04-06 10:11:20 51°33.597 2°55.18 286.3 3.39 289 -999
2010-04-06 10:11:30 51°33.604 2°55.169 286.3 3.39 289 -999
2010-04-06 10:11:40 51°33.614 2°55.157 286.3 3.39 289 -999
2010-04-06 10:11:50 51°33.623 2°55.151 286.3 3.39 289 -999
2010-04-06 10:12:00 51°33.634 2°55.148 357 4 353 -999
2010-04-06 10:12:10 51°33.645 2°55.148 357 4 353 -999
2010-04-06 10:12:20 51°33.655 2°55.151 357 4 353 -999
2010-04-06 10:12:30 51°33.665 2°55.159 357 4 353 -999
2010-04-06 10:12:40 51°33.672 2°55.169 357 4 353 -999
2010-04-06 10:12:50 51°33.678 2°55.181 357 4 353 -999
2010-04-06 10:13:00 51°33.682 2°55.195 71.5 3.39 70 -999
2010-04-06 10:13:10 51°33.684 2°55.209 71.5 3.39 70 -999
2010-04-06 10:13:20 51°33.684 2°55.224 71.5 3.39 70 -999
2010-04-06 10:13:30 51°33.682 2°55.239 71.5 3.39 70 -999
2010-04-06 10:13:40 51°33.679 2°55.255 71.5 3.39 70 -999
2010-04-06 10:13:50 51°33.674 2°55.271 71.5 3.39 70 -999
2010-04-06 10:14:00 51°33.668 2°55.287 122 4.2 123 -999
2010-04-06 10:14:10 51°33.662 2°55.302 122 4.2 123 -999
2010-04-06 10:14:20 51°33.654 2°55.319 122 4.2 123 -999
2010-04-06 10:14:30 51°33.647 2°55.336 122 4.2 123 -999
2010-04-06 10:14:40 51°33.639 2°55.353 122 4.2 123 -999
2010-04-06 10:14:50 51°33.632 2°55.371 122 4.2 123 -999
2010-04-06 10:15:00 51°33.624 2°55.389 123.7 5 124 -999
2010-04-06 10:15:10 51°33.616 2°55.408 123.7 5 124 -999
2010-04-06 10:15:20 51°33.608 2°55.427 123.7 5 124 -999
2010-04-06 10:15:30 51°33.599 2°55.445 123.7 5 124 -999
2010-04-06 10:15:40 51°33.59 2°55.463 123.7 5 124 -999
2010-04-06 10:15:50 51°33.581 2°55.481 123.7 5 124 -999
2010-04-06 10:16:00 51°33.572 2°55.499 129.1 5.29 130 -999
2010-04-06 10:16:10 51°33.562 2°55.517 129.1 5.29 130 -999
2010-04-06 10:16:20 51°33.553 2°55.535 129.1 5.29 130 -999
2010-04-06 10:16:30 51°33.543 2°55.552 129.1 5.29 130 -999
2010-04-06 10:16:40 51°33.533 2°55.57 129.1 5.29 130 -999
2010-04-06 10:16:50 51°33.523 2°55.588 129.1 5.29 130 -999
2010-04-06 10:17:00 51°33.513 2°55.606 129.8 5.4 131 -999
2010-04-06 10:17:10 51°33.503 2°55.624 129.8 5.4 131 -999
2010-04-06 10:17:20 51°33.493 2°55.642 129.8 5.4 131 -999
2010-04-06 10:17:30 51°33.483 2°55.66 129.8 5.4 131 -999
2010-04-06 10:17:40 51°33.473 2°55.678 129.8 5.4 131 -999
2010-04-06 10:17:50 51°33.463 2°55.695 129.8 5.4 131 -999
2010-04-06 10:18:00 51°33.453 2°55.713 129.3 5.5 132 -999
2010-04-06 10:18:10 51°33.443 2°55.731 129.3 5.5 132 -999
2010-04-06 10:18:20 51°33.432 2°55.749 129.3 5.5 132 -999
2010-04-06 10:18:30 51°33.422 2°55.767 129.3 5.5 132 -999
2010-04-06 10:18:40 51°33.412 2°55.784 129.3 5.5 132 -999
2010-04-06 10:18:50 51°33.403 2°55.8 129.3 5.5 132 -999
2010-04-06 10:19:00 51°33.395 2°55.814 129.5 4.4 134 -999
2010-04-06 10:19:10 51°33.387 2°55.828 129.5 4.4 134 -999
2010-04-06 10:19:20 51°33.379 2°55.841 129.5 4.4 134 -999
2010-04-06 10:19:30 51°33.372 2°55.852 129.5 4.4 134 -999
2010-04-06 10:19:40 51°33.365 2°55.863 129.5 4.4 134 -999
2010-04-06 10:19:50 51°33.359 2°55.874 129.5 4.4 134 -999
2010-04-06 10:20:00 51°33.353 2°55.883 130.1 3 135 -999
2010-04-06 10:20:10 51°33.347 2°55.892 130.1 3 135 -999
2010-04-06 10:20:20 51°33.341 2°55.902 130.1 3 135 -999
2010-04-06 10:20:30 51°33.336 2°55.909 130.1 3 135 -999
2010-04-06 10:20:40 51°33.331 2°55.918 130.1 3 135 -999
2010-04-06 10:20:50 51°33.327 2°55.925 130.1 3 135 -999
2010-04-06 10:21:00 51°33.322 2°55.932 129.3 2.29 134 -999
2010-04-06 10:21:10 51°33.318 2°55.939 129.3 2.29 134 -999
2010-04-06 10:21:20 51°33.313 2°55.947 129.3 2.29 134 -999
2010-04-06 10:21:30 51°33.309 2°55.953 129.3 2.29 134 -999
2010-04-06 10:21:40 51°33.306 2°55.959 129.3 2.29 134 -999
2010-04-06 10:21:50 51°33.302 2°55.965 129.3 2.29 134 -999
2010-04-06 10:22:00 51°33.298 2°55.971 127.4 1.89 133 -999
2010-04-06 10:22:10 51°33.295 2°55.977 127.4 1.89 133 -999
2010-04-06 10:22:20 51°33.291 2°55.984 127.4 1.89 133 -999
2010-04-06 10:22:30 51°33.289 2°55.989 127.4 1.89 133 -999
2010-04-06 10:22:40 51°33.285 2°55.995 127.4 1.89 133 -999
2010-04-06 10:22:50 51°33.282 2°56 127.4 1.89 133 -999
2010-04-06 10:23:00 51°33.279 2°56.005 128 1.6 136 -999
2010-04-06 10:23:10 51°33.276 2°56.01 128 1.6 136 -999
2010-04-06 10:23:20 51°33.273 2°56.015 128 1.6 136 -999
2010-04-06 10:23:30 51°33.27 2°56.019 128 1.6 136 -999
2010-04-06 10:23:40 51°33.266 2°56.023 128 1.6 136 -999
2010-04-06 10:23:50 51°33.263 2°56.028 128 1.6 136 -999
2010-04-06 10:24:00 51°33.26 2°56.032 130.4 1.39 139 -999
2010-04-06 10:24:10 51°33.257 2°56.036 130.4 1.39 139 -999
2010-04-06 10:24:20 51°33.254 2°56.04 130.4 1.39 139 -999
2010-04-06 10:24:30 51°33.251 2°56.043 130.4 1.39 139 -999
2010-04-06 10:24:40 51°33.248 2°56.048 130.4 1.39 139 -999
2010-04-06 10:24:50 51°33.245 2°56.051 130.4 1.39 139 -999
2010-04-06 10:25:00 51°33.243 2°56.055 130 1.3 140 -999
2010-04-06 10:25:10 51°33.24 2°56.058 130 1.3 140 -999
2010-04-06 10:25:20 51°33.237 2°56.062 130 1.3 140 -999
2010-04-06 10:25:30 51°33.234 2°56.065 130 1.3 140 -999
2010-04-06 10:25:40 51°33.231 2°56.069 130 1.3 140 -999
2010-04-06 10:25:50 51°33.229 2°56.072 130 1.3 140 -999
2010-04-06 10:26:00 51°33.226 2°56.075 129.5 1.19 142 -999
2010-04-06 10:26:10 51°33.223 2°56.078 129.5 1.19 142 -999
2010-04-06 10:26:20 51°33.221 2°56.081 129.5 1.19 142 -999
2010-04-06 10:26:30 51°33.218 2°56.084 129.5 1.19 142 -999
2010-04-06 10:26:40 51°33.215 2°56.087 129.5 1.19 142 -999
2010-04-06 10:26:50 51°33.212 2°56.09 129.5 1.19 142 -999
2010-04-06 10:27:00 51°33.209 2°56.093 131.4 1.19 149 -999
2010-04-06 10:27:10 51°33.206 2°56.096 131.4 1.19 149 -999
2010-04-06 10:27:20 51°33.203 2°56.099 131.4 1.19 149 -999
2010-04-06 10:27:30 51°33.2 2°56.101 131.4 1.19 149 -999
2010-04-06 10:27:40 51°33.197 2°56.104 131.4 1.19 149 -999
2010-04-06 10:27:50 51°33.194 2°56.107 131.4 1.19 149 -999
2010-04-06 10:28:00 51°33.191 2°56.109 132.8 1.3 153 -999
2010-04-06 10:28:10 51°33.188 2°56.112 132.8 1.3 153 -999
2010-04-06 10:28:20 51°33.185 2°56.114 132.8 1.3 153 -999
2010-04-06 10:28:30 51°33.181 2°56.117 132.8 1.3 153 -999
2010-04-06 10:28:40 51°33.179 2°56.12 132.8 1.3 153 -999
2010-04-06 10:28:50 51°33.175 2°56.123 132.8 1.3 153 -999
2010-04-06 10:29:00 51°33.172 2°56.126 130.5 1.19 149 -999
2010-04-06 10:29:10 51°33.169 2°56.129 130.5 1.19 149 -999
2010-04-06 10:29:20 51°33.166 2°56.132 130.5 1.19 149 -999
2010-04-06 10:29:30 51°33.164 2°56.135 130.5 1.19 149 -999
2010-04-06 10:29:40 51°33.161 2°56.138 130.5 1.19 149 -999
2010-04-06 10:29:50 51°33.158 2°56.141 130.5 1.19 149 -999
2010-04-06 10:30:00 51°33.155 2°56.144 128 1.19 146 -999
2010-04-06 10:30:10 51°33.152 2°56.147 128 1.19 146 -999
2010-04-06 10:30:20 51°33.149 2°56.151 128 1.19 146 -999
2010-04-06 10:30:30 51°33.147 2°56.154 128 1.19 146 -999
2010-04-06 10:30:40 51°33.144 2°56.157 128 1.19 146 -999
2010-04-06 10:30:50 51°33.141 2°56.16 128 1.19 146 -999
2010-04-06 10:31:00 51°33.139 2°56.163 126.5 1.19 145 -999
2010-04-06 10:31:10 51°33.136 2°56.166 126.5 1.19 145 -999
2010-04-06 10:31:20 51°33.133 2°56.17 126.5 1.19 145 -999
2010-04-06 10:31:30 51°33.13 2°56.173 126.5 1.19 145 -999
2010-04-06 10:31:40 51°33.127 2°56.176 126.5 1.19 145 -999
2010-04-06 10:31:50 51°33.124 2°56.179 126.5 1.19 145 -999
2010-04-06 10:32:00 51°33.122 2°56.183 127.4 1.3 144 -999
2010-04-06 10:32:10 51°33.119 2°56.186 127.4 1.3 144 -999
2010-04-06 10:32:20 51°33.116 2°56.19 127.4 1.3 144 -999
2010-04-06 10:32:30 51°33.113 2°56.193 127.4 1.3 144 -999
2010-04-06 10:32:40 51°33.11 2°56.196 127.4 1.3 144 -999
2010-04-06 10:32:50 51°33.107 2°56.199 127.4 1.3 144 -999
2010-04-06 10:33:00 51°33.105 2°56.203 127.2 1.19 143 -999
2010-04-06 10:33:10 51°33.102 2°56.206 127.2 1.19 143 -999
2010-04-06 10:33:20 51°33.099 2°56.21 127.2 1.19 143 -999
2010-04-06 10:33:30 51°33.096 2°56.213 127.2 1.19 143 -999
2010-04-06 10:33:40 51°33.093 2°56.216 127.2 1.19 143 -999
2010-04-06 10:33:50 51°33.09 2°56.22 127.2 1.19 143 -999
2010-04-06 10:34:00 51°33.087 2°56.223 128 1.3 145 -999
2010-04-06 10:34:10 51°33.084 2°56.226 128 1.3 145 -999
2010-04-06 10:34:20 51°33.081 2°56.23 128 1.3 145 -999
2010-04-06 10:34:30 51°33.078 2°56.233 128 1.3 145 -999
2010-04-06 10:34:40 51°33.074 2°56.237 128 1.3 145 -999
2010-04-06 10:34:50 51°33.071 2°56.24 128 1.3 145 -999
2010-04-06 10:35:00 51°33.069 2°56.244 125.7 1.3 140 -999
2010-04-06 10:35:10 51°33.066 2°56.248 125.7 1.3 140 -999
2010-04-06 10:35:20 51°33.063 2°56.252 125.7 1.3 140 -999
2010-04-06 10:35:30 51°33.06 2°56.256 125.7 1.3 140 -999
2010-04-06 10:35:40 51°33.057 2°56.259 125.7 1.3 140 -999
2010-04-06 10:35:50 51°33.055 2°56.264 125.7 1.3 140 -999
2010-04-06 10:36:00 51°33.052 2°56.268 120.7 1.3 134 -999
2010-04-06 10:36:10 51°33.049 2°56.272 120.7 1.3 134 -999
2010-04-06 10:36:20 51°33.047 2°56.276 120.7 1.3 134 -999
2010-04-06 10:36:30 51°33.044 2°56.281 120.7 1.3 134 -999
2010-04-06 10:36:40 51°33.041 2°56.285 120.7 1.3 134 -999
2010-04-06 10:36:50 51°33.039 2°56.29 120.7 1.3 134 -999
2010-04-06 10:37:00 51°33.036 2°56.295 119 1.39 134 -999
2010-04-06 10:37:10 51°33.033 2°56.299 119 1.39 134 -999
2010-04-06 10:37:20 51°33.031 2°56.304 119 1.39 134 -999
2010-04-06 10:37:30 51°33.028 2°56.309 119 1.39 134 -999
2010-04-06 10:37:40 51°33.026 2°56.314 119 1.39 134 -999
2010-04-06 10:37:50 51°33.023 2°56.319 119 1.39 134 -999
2010-04-06 10:38:00 51°33.021 2°56.324 117.7 1.5 127 -999
2010-04-06 10:38:10 51°33.018 2°56.329 117.7 1.5 127 -999
2010-04-06 10:38:20 51°33.016 2°56.334 117.7 1.5 127 -999
2010-04-06 10:38:30 51°33.013 2°56.34 117.7 1.5 127 -999
2010-04-06 10:38:40 51°33.011 2°56.345 117.7 1.5 127 -999
2010-04-06 10:38:50 51°33.009 2°56.35 117.7 1.5 127 -999
2010-04-06 10:39:00 51°33.006 2°56.356 117.7 1.5 125 -999
2010-04-06 10:39:10 51°33.004 2°56.361 117.7 1.5 125 -999
2010-04-06 10:39:20 51°33.002 2°56.367 117.7 1.5 125 -999
2010-04-06 10:39:30 51°33 2°56.372 117.7 1.5 125 -999
2010-04-06 10:39:40 51°32.997 2°56.378 117.7 1.5 125 -999
2010-04-06 10:39:50 51°32.995 2°56.383 117.7 1.5 125 -999
2010-04-06 10:40:00 51°32.993 2°56.39 117.7 1.5 124 -999
2010-04-06 10:40:10 51°32.991 2°56.395 117.7 1.5 124 -999
2010-04-06 10:40:20 51°32.988 2°56.4 117.7 1.5 124 -999
2010-04-06 10:40:30 51°32.986 2°56.405 117.7 1.5 124 -999
2010-04-06 10:40:40 51°32.983 2°56.411 117.7 1.5 124 -999
2010-04-06 10:40:50 51°32.98 2°56.416 117.7 1.5 124 -999
2010-04-06 10:41:00 51°32.977 2°56.422 122 1.5 129 -999
2010-04-06 10:41:10 51°32.975 2°56.427 122 1.5 129 -999
2010-04-06 10:41:20 51°32.972 2°56.433 122 1.5 129 -999
2010-04-06 10:41:30 51°32.97 2°56.438 122 1.5 129 -999
2010-04-06 10:41:40 51°32.968 2°56.444 122 1.5 129 -999
2010-04-06 10:41:50 51°32.965 2°56.449 122 1.5 129 -999
2010-04-06 10:42:00 51°32.963 2°56.454 120.4 1.39 123 -999
2010-04-06 10:42:10 51°32.961 2°56.46 120.4 1.39 123 -999
2010-04-06 10:42:20 51°32.959 2°56.465 120.4 1.39 123 -999
2010-04-06 10:42:30 51°32.958 2°56.471 120.4 1.39 123 -999
2010-04-06 10:42:40 51°32.957 2°56.476 120.4 1.39 123 -999
2010-04-06 10:42:50 51°32.956 2°56.481 120.4 1.39 123 -999
2010-04-06 10:43:00 51°32.956 2°56.487 93.5 1.19 91 -999
2010-04-06 10:43:10 51°32.957 2°56.492 93.5 1.19 91 -999
2010-04-06 10:43:20 51°32.957 2°56.497 93.5 1.19 91 -999
2010-04-06 10:43:30 51°32.958 2°56.502 93.5 1.19 91 -999
2010-04-06 10:43:40 51°32.96 2°56.508 93.5 1.19 91 -999
2010-04-06 10:43:50 51°32.962 2°56.512 93.5 1.19 91 -999
2010-04-06 10:44:00 51°32.964 2°56.517 60.5 1.3 49 -999
2010-04-06 10:44:10 51°32.967 2°56.521 60.5 1.3 49 -999
2010-04-06 10:44:20 51°32.97 2°56.525 60.5 1.3 49 -999
2010-04-06 10:44:30 51°32.973 2°56.528 60.5 1.3 49 -999
2010-04-06 10:44:40 51°32.977 2°56.531 60.5 1.3 49 -999
2010-04-06 10:44:50 51°32.98 2°56.532 60.5 1.3 49 -999
2010-04-06 10:45:00 51°32.984 2°56.533 28.6 1.3 11 -999
2010-04-06 10:45:10 51°32.987 2°56.534 28.6 1.3 11 -999
2010-04-06 10:45:20 51°32.991 2°56.535 28.6 1.3 11 -999
2010-04-06 10:45:30 51°32.994 2°56.535 28.6 1.3 11 -999
2010-04-06 10:45:40 51°32.997 2°56.535 28.6 1.3 11 -999
2010-04-06 10:45:50 51°33 2°56.535 28.6 1.3 11 -999
2010-04-06 10:46:00 51°33.003 2°56.535 24.5 1.1 358 -999
2010-04-06 10:46:10 51°33.005 2°56.535 24.5 1.1 358 -999
2010-04-06 10:46:20 51°33.008 2°56.535 24.5 1.1 358 -999
2010-04-06 10:46:30 51°33.011 2°56.535 24.5 1.1 358 -999
2010-04-06 10:46:40 51°33.013 2°56.535 24.5 1.1 358 -999
2010-04-06 10:46:50 51°33.015 2°56.535 24.5 1.1 358 -999
2010-04-06 10:47:00 51°33.018 2°56.534 31.8 0.8 357 -999
2010-04-06 10:47:10 51°33.02 2°56.535 31.8 0.8 357 -999
2010-04-06 10:47:20 51°33.022 2°56.534 31.8 0.8 357 -999
2010-04-06 10:47:30 51°33.024 2°56.534 31.8 0.8 357 -999
2010-04-06 10:47:40 51°33.025 2°56.534 31.8 0.8 357 -999
2010-04-06 10:47:50 51°33.027 2°56.533 31.8 0.8 357 -999
2010-04-06 10:48:00 51°33.029 2°56.533 39.3 0.59 352 -999
2010-04-06 10:48:10 51°33.031 2°56.533 39.3 0.59 352 -999
2010-04-06 10:48:20 51°33.032 2°56.532 39.3 0.59 352 -999
2010-04-06 10:48:30 51°33.034 2°56.532 39.3 0.59 352 -999
2010-04-06 10:48:40 51°33.035 2°56.532 39.3 0.59 352 -999
2010-04-06 10:48:50 51°33.036 2°56.531 39.3 0.59 352 -999
2010-04-06 10:49:00 51°33.038 2°56.531 46.7 0.4 352 -999
2010-04-06 10:49:10 51°33.039 2°56.53 46.7 0.4 352 -999
2010-04-06 10:49:20 51°33.04 2°56.53 46.7 0.4 352 -999
2010-04-06 10:49:30 51°33.041 2°56.529 46.7 0.4 352 -999
2010-04-06 10:49:40 51°33.042 2°56.529 46.7 0.4 352 -999
2010-04-06 10:49:50 51°33.043 2°56.528 46.7 0.4 352 -999
2010-04-06 10:50:00 51°33.044 2°56.528 54.7 0.29 334 -999
2010-04-06 10:50:10 51°33.045 2°56.527 54.7 0.29 334 -999
2010-04-06 10:50:20 51°33.046 2°56.526 54.7 0.29 334 -999
2010-04-06 10:50:30 51°33.046 2°56.526 54.7 0.29 334 -999
2010-04-06 10:50:40 51°33.047 2°56.525 54.7 0.29 334 -999
2010-04-06 10:50:50 51°33.047 2°56.524 54.7 0.29 334 -999
2010-04-06 10:51:00 51°33.048 2°56.523 61.2 0.29 312 -999
2010-04-06 10:51:10 51°33.049 2°56.523 61.2 0.29 312 -999
2010-04-06 10:51:20 51°33.049 2°56.522 61.2 0.29 312 -999
2010-04-06 10:51:30 51°33.05 2°56.52 61.2 0.29 312 -999
2010-04-06 10:51:40 51°33.05 2°56.519 61.2 0.29 312 -999
2010-04-06 10:51:50 51°33.051 2°56.519 61.2 0.29 312 -999
2010-04-06 10:52:00 51°33.051 2°56.517 66.5 0.29 304 -999
2010-04-06 10:52:10 51°33.052 2°56.516 66.5 0.29 304 -999
2010-04-06 10:52:20 51°33.052 2°56.515 66.5 0.29 304 -999
2010-04-06 10:52:30 51°33.052 2°56.514 66.5 0.29 304 -999
2010-04-06 10:52:40 51°33.053 2°56.513 66.5 0.29 304 -999
2010-04-06 10:52:50 51°33.054 2°56.511 66.5 0.29 304 -999
2010-04-06 10:53:00 51°33.054 2°56.51 71.9 0.29 298 -999
2010-04-06 10:53:10 51°33.054 2°56.509 71.9 0.29 298 -999
2010-04-06 10:53:20 51°33.054 2°56.507 71.9 0.29 298 -999
2010-04-06 10:53:30 51°33.055 2°56.506 71.9 0.29 298 -999
2010-04-06 10:53:40 51°33.055 2°56.505 71.9 0.29 298 -999
2010-04-06 10:53:50 51°33.056 2°56.503 71.9 0.29 298 -999
2010-04-06 10:54:00 51°33.056 2°56.502 76.7 0.29 297 -999
2010-04-06 10:54:10 51°33.057 2°56.5 76.7 0.29 297 -999
2010-04-06 10:54:20 51°33.057 2°56.499 76.7 0.29 297 -999
2010-04-06 10:54:30 51°33.057 2°56.498 76.7 0.29 297 -999
2010-04-06 10:54:40 51°33.057 2°56.496 76.7 0.29 297 -999
2010-04-06 10:54:50 51°33.058 2°56.495 76.7 0.29 297 -999
2010-04-06 10:55:00 51°33.058 2°56.493 80.5 0.4 291 -999
2010-04-06 10:55:10 51°33.059 2°56.491 80.5 0.4 291 -999
2010-04-06 10:55:20 51°33.059 2°56.489 80.5 0.4 291 -999
2010-04-06 10:55:30 51°33.059 2°56.488 80.5 0.4 291 -999
2010-04-06 10:55:40 51°33.06 2°56.486 80.5 0.4 291 -999
2010-04-06 10:55:50 51°33.06 2°56.484 80.5 0.4 291 -999
2010-04-06 10:56:00 51°33.061 2°56.483 82.9 0.4 284 -999
2010-04-06 10:56:10 51°33.061 2°56.481 82.9 0.4 284 -999
2010-04-06 10:56:20 51°33.061 2°56.479 82.9 0.4 284 -999
2010-04-06 10:56:30 51°33.061 2°56.477 82.9 0.4 284 -999
2010-04-06 10:56:40 51°33.061 2°56.475 82.9 0.4 284 -999
2010-04-06 10:56:50 51°33.062 2°56.474 82.9 0.4 284 -999
2010-04-06 10:57:00 51°33.062 2°56.472 84.5 0.5 283 -999
2010-04-06 10:57:10 51°33.062 2°56.47 84.5 0.5 283 -999
2010-04-06 10:57:20 51°33.062 2°56.468 84.5 0.5 283 -999
2010-04-06 10:57:30 51°33.063 2°56.466 84.5 0.5 283 -999
2010-04-06 10:57:40 51°33.063 2°56.464 84.5 0.5 283 -999
2010-04-06 10:57:50 51°33.063 2°56.462 84.5 0.5 283 -999
2010-04-06 10:58:00 51°33.063 2°56.459 83 0.5 276 -999
2010-04-06 10:58:10 51°33.063 2°56.457 83 0.5 276 -999
2010-04-06 10:58:20 51°33.064 2°56.455 83 0.5 276 -999
2010-04-06 10:58:30 51°33.064 2°56.453 83 0.5 276 -999
2010-04-06 10:58:40 51°33.064 2°56.451 83 0.5 276 -999
2010-04-06 10:58:50 51°33.064 2°56.448 83 0.5 276 -999
2010-04-06 10:59:00 51°33.064 2°56.446 83.7 0.5 278 -999
2010-04-06 10:59:10 51°33.064 2°56.443 83.7 0.5 278 -999
2010-04-06 10:59:20 51°33.065 2°56.441 83.7 0.5 278 -999
2010-04-06 10:59:30 51°33.065 2°56.439 83.7 0.5 278 -999
2010-04-06 10:59:40 51°33.065 2°56.436 83.7 0.5 278 -999
2010-04-06 10:59:50 51°33.065 2°56.434 83.7 0.5 278 -999
2010-04-06 11:00:00 51°33.065 2°56.431 83.5 0.59 271 -999
2010-04-06 11:00:10 51°33.065 2°56.429 83.5 0.59 271 -999
2010-04-06 11:00:20 51°33.065 2°56.426 83.5 0.59 271 -999
2010-04-06 11:00:30 51°33.065 2°56.424 83.5 0.59 271 -999
2010-04-06 11:00:40 51°33.065 2°56.421 83.5 0.59 271 -999
2010-04-06 11:00:50 51°33.065 2°56.418 83.5 0.59 271 -999
2010-04-06 11:01:00 51°33.066 2°56.415 81.2 0.59 273 -999
2010-04-06 11:01:10 51°33.066 2°56.413 81.2 0.59 273 -999
2010-04-06 11:01:20 51°33.066 2°56.41 81.2 0.59 273 -999
2010-04-06 11:01:30 51°33.066 2°56.407 81.2 0.59 273 -999
2010-04-06 11:01:40 51°33.066 2°56.404 81.2 0.59 273 -999
2010-04-06 11:01:50 51°33.066 2°56.401 81.2 0.59 273 -999
2010-04-06 11:02:00 51°33.066 2°56.398 77.7 0.59 269 -999
2010-04-06 11:02:10 51°33.066 2°56.396 77.7 0.59 269 -999
2010-04-06 11:02:20 51°33.066 2°56.393 77.7 0.59 269 -999
2010-04-06 11:02:30 51°33.066 2°56.39 77.7 0.59 269 -999
2010-04-06 11:02:40 51°33.066 2°56.387 77.7 0.59 269 -999
2010-04-06 11:02:50 51°33.066 2°56.384 77.7 0.59 269 -999
2010-04-06 11:03:00 51°33.066 2°56.381 75.2 0.69 270 -999
2010-04-06 11:03:10 51°33.066 2°56.378 75.2 0.69 270 -999
2010-04-06 11:03:20 51°33.066 2°56.375 75.2 0.69 270 -999
2010-04-06 11:03:30 51°33.066 2°56.372 75.2 0.69 270 -999
2010-04-06 11:03:40 51°33.066 2°56.369 75.2 0.69 270 -999
2010-04-06 11:03:50 51°33.066 2°56.366 75.2 0.69 270 -999
2010-04-06 11:04:00 51°33.066 2°56.363 71.9 0.69 270 -999
2010-04-06 11:04:10 51°33.065 2°56.359 71.9 0.69 270 -999
2010-04-06 11:04:20 51°33.065 2°56.356 71.9 0.69 270 -999
2010-04-06 11:04:30 51°33.065 2°56.353 71.9 0.69 270 -999
2010-04-06 11:04:40 51°33.065 2°56.35 71.9 0.69 270 -999
2010-04-06 11:04:50 51°33.064 2°56.347 71.9 0.69 270 -999
2010-04-06 11:05:00 51°33.064 2°56.344 69.7 0.69 268 -999
2010-04-06 11:05:10 51°33.064 2°56.341 69.7 0.69 268 -999
2010-04-06 11:05:20 51°33.064 2°56.338 69.7 0.69 268 -999
2010-04-06 11:05:30 51°33.064 2°56.334 69.7 0.69 268 -999
2010-04-06 11:05:40 51°33.064 2°56.331 69.7 0.69 268 -999
2010-04-06 11:05:50 51°33.064 2°56.328 69.7 0.69 268 -999
2010-04-06 11:06:00 51°33.064 2°56.325 68 0.8 269 -999
2010-04-06 11:06:10 51°33.063 2°56.322 68 0.8 269 -999
2010-04-06 11:06:20 51°33.063 2°56.318 68 0.8 269 -999
2010-04-06 11:06:30 51°33.063 2°56.315 68 0.8 269 -999
2010-04-06 11:06:40 51°33.063 2°56.312 68 0.8 269 -999
2010-04-06 11:06:50 51°33.062 2°56.309 68 0.8 269 -999
2010-04-06 11:07:00 51°33.062 2°56.305 67.5 0.8 260 -999
2010-04-06 11:07:10 51°33.062 2°56.302 67.5 0.8 260 -999
2010-04-06 11:07:20 51°33.061 2°56.298 67.5 0.8 260 -999
2010-04-06 11:07:30 51°33.061 2°56.295 67.5 0.8 260 -999
2010-04-06 11:07:40 51°33.061 2°56.292 67.5 0.8 260 -999
2010-04-06 11:07:50 51°33.06 2°56.289 67.5 0.8 260 -999
2010-04-06 11:08:00 51°33.06 2°56.285 67.2 0.8 265 -999
2010-04-06 11:08:10 51°33.06 2°56.282 67.2 0.8 265 -999
2010-04-06 11:08:20 51°33.059 2°56.278 67.2 0.8 265 -999
2010-04-06 11:08:30 51°33.059 2°56.275 67.2 0.8 265 -999
2010-04-06 11:08:40 51°33.059 2°56.271 67.2 0.8 265 -999
2010-04-06 11:08:50 51°33.059 2°56.268 67.2 0.8 265 -999
2010-04-06 11:09:00 51°33.058 2°56.264 67 0.8 263 -999
2010-04-06 11:09:10 51°33.058 2°56.261 67 0.8 263 -999
2010-04-06 11:09:20 51°33.058 2°56.257 67 0.8 263 -999
2010-04-06 11:09:30 51°33.057 2°56.254 67 0.8 263 -999
2010-04-06 11:09:40 51°33.057 2°56.25 67 0.8 263 -999
2010-04-06 11:09:50 51°33.057 2°56.247 67 0.8 263 -999
2010-04-06 11:10:00 51°33.057 2°56.243 66.7 0.8 262 -999
2010-04-06 11:10:10 51°33.057 2°56.24 66.7 0.8 262 -999
2010-04-06 11:10:20 51°33.056 2°56.237 66.7 0.8 262 -999
2010-04-06 11:10:30 51°33.056 2°56.233 66.7 0.8 262 -999
2010-04-06 11:10:40 51°33.055 2°56.23 66.7 0.8 262 -999
2010-04-06 11:10:50 51°33.055 2°56.226 66.7 0.8 262 -999
2010-04-06 11:11:00 51°33.055 2°56.223 66 0.8 258 -999
2010-04-06 11:11:10 51°33.055 2°56.22 66 0.8 258 -999
2010-04-06 11:11:20 51°33.054 2°56.216 66 0.8 258 -999
2010-04-06 11:11:30 51°33.054 2°56.213 66 0.8 258 -999
2010-04-06 11:11:40 51°33.054 2°56.209 66 0.8 258 -999
2010-04-06 11:11:50 51°33.053 2°56.206 66 0.8 258 -999
2010-04-06 11:12:00 51°33.053 2°56.202 66 0.8 263 -999
2010-04-06 11:12:10 51°33.052 2°56.199 66 0.8 263 -999
2010-04-06 11:12:20 51°33.052 2°56.195 66 0.8 263 -999
2010-04-06 11:12:30 51°33.052 2°56.192 66 0.8 263 -999
2010-04-06 11:12:40 51°33.051 2°56.188 66 0.8 263 -999
2010-04-06 11:12:50 51°33.051 2°56.185 66 0.8 263 -999
2010-04-06 11:13:00 51°33.051 2°56.181 65 0.8 263 -999
2010-04-06 11:13:10 51°33.051 2°56.178 65 0.8 263 -999
2010-04-06 11:13:20 51°33.05 2°56.174 65 0.8 263 -999
2010-04-06 11:13:30 51°33.05 2°56.171 65 0.8 263 -999
2010-04-06 11:13:40 51°33.049 2°56.167 65 0.8 263 -999
2010-04-06 11:13:50 51°33.049 2°56.163 65 0.8 263 -999
2010-04-06 11:14:00 51°33.048 2°56.16 64.5 0.8 251 -999
2010-04-06 11:14:10 51°33.048 2°56.156 64.5 0.8 251 -999
2010-04-06 11:14:20 51°33.047 2°56.153 64.5 0.8 251 -999
2010-04-06 11:14:30 51°33.047 2°56.149 64.5 0.8 251 -999
2010-04-06 11:14:40 51°33.047 2°56.145 64.5 0.8 251 -999
2010-04-06 11:14:50 51°33.046 2°56.142 64.5 0.8 251 -999
2010-04-06 11:15:00 51°33.045 2°56.138 64 0.8 257 -999
2010-04-06 11:15:10 51°33.045 2°56.134 64 0.8 257 -999
2010-04-06 11:15:20 51°33.044 2°56.131 64 0.8 257 -999
2010-04-06 11:15:30 51°33.044 2°56.127 64 0.8 257 -999
2010-04-06 11:15:40 51°33.043 2°56.123 64 0.8 257 -999
2010-04-06 11:15:50 51°33.042 2°56.12 64 0.8 257 -999
2010-04-06 11:16:00 51°33.042 2°56.116 64 0.9 252 -999
2010-04-06 11:16:10 51°33.041 2°56.112 64 0.9 252 -999
2010-04-06 11:16:20 51°33.04 2°56.108 64 0.9 252 -999
2010-04-06 11:16:30 51°33.04 2°56.105 64 0.9 252 -999
2010-04-06 11:16:40 51°33.039 2°56.101 64 0.9 252 -999
2010-04-06 11:16:50 51°33.038 2°56.097 64 0.9 252 -999
2010-04-06 11:17:00 51°33.038 2°56.093 64.2 0.9 252 -999
2010-04-06 11:17:10 51°33.037 2°56.089 64.2 0.9 252 -999
2010-04-06 11:17:20 51°33.036 2°56.085 64.2 0.9 252 -999
2010-04-06 11:17:30 51°33.036 2°56.082 64.2 0.9 252 -999
2010-04-06 11:17:40 51°33.035 2°56.078 64.2 0.9 252 -999
2010-04-06 11:17:50 51°33.034 2°56.074 64.2 0.9 252 -999
2010-04-06 11:18:00 51°33.034 2°56.07 65.9 0.9 256 -999
2010-04-06 11:18:10 51°33.033 2°56.067 65.9 0.9 256 -999
2010-04-06 11:18:20 51°33.032 2°56.063 65.9 0.9 256 -999
2010-04-06 11:18:30 51°33.032 2°56.059 65.9 0.9 256 -999
2010-04-06 11:18:40 51°33.031 2°56.055 65.9 0.9 256 -999
2010-04-06 11:18:50 51°33.03 2°56.052 65.9 0.9 256 -999
2010-04-06 11:19:00 51°33.03 2°56.048 67.2 0.9 252 -999
2010-04-06 11:19:10 51°33.029 2°56.044 67.2 0.9 252 -999
2010-04-06 11:19:20 51°33.028 2°56.04 67.2 0.9 252 -999
2010-04-06 11:19:30 51°33.028 2°56.037 67.2 0.9 252 -999
2010-04-06 11:19:40 51°33.027 2°56.032 67.2 0.9 252 -999
2010-04-06 11:19:50 51°33.027 2°56.029 67.2 0.9 252 -999
2010-04-06 11:20:00 51°33.026 2°56.025 67.2 0.9 255 -999
2010-04-06 11:20:10 51°33.025 2°56.021 67.2 0.9 255 -999
2010-04-06 11:20:20 51°33.024 2°56.017 67.2 0.9 255 -999
2010-04-06 11:20:30 51°33.023 2°56.013 67.2 0.9 255 -999
2010-04-06 11:20:40 51°33.023 2°56.01 67.2 0.9 255 -999
2010-04-06 11:20:50 51°33.022 2°56.006 67.2 0.9 255 -999
2010-04-06 11:21:00 51°33.021 2°56.002 67.4 0.9 260 -999
2010-04-06 11:21:10 51°33.021 2°55.998 67.4 0.9 260 -999
2010-04-06 11:21:20 51°33.02 2°55.994 67.4 0.9 260 -999
2010-04-06 11:21:30 51°33.019 2°55.99 67.4 0.9 260 -999
2010-04-06 11:21:40 51°33.018 2°55.986 67.4 0.9 260 -999
2010-04-06 11:21:50 51°33.018 2°55.982 67.4 0.9 260 -999
2010-04-06 11:22:00 51°33.017 2°55.978 68.5 0.9 258 -999
2010-04-06 11:22:10 51°33.017 2°55.974 68.5 0.9 258 -999
2010-04-06 11:22:20 51°33.016 2°55.971 68.5 0.9 258 -999
2010-04-06 11:22:30 51°33.016 2°55.967 68.5 0.9 258 -999
2010-04-06 11:22:40 51°33.015 2°55.963 68.5 0.9 258 -999
2010-04-06 11:22:50 51°33.014 2°55.959 68.5 0.9 258 -999
2010-04-06 11:23:00 51°33.014 2°55.955 68 0.9 257 -999
2010-04-06 11:23:10 51°33.014 2°55.951 68 0.9 257 -999
2010-04-06 11:23:20 51°33.013 2°55.947 68 0.9 257 -999
2010-04-06 11:23:30 51°33.012 2°55.943 68 0.9 257 -999
2010-04-06 11:23:40 51°33.012 2°55.939 68 0.9 257 -999
2010-04-06 11:23:50 51°33.011 2°55.935 68 0.9 257 -999
2010-04-06 11:24:00 51°33.011 2°55.931 69 0.9 257 -999
2010-04-06 11:24:10 51°33.01 2°55.927 69 0.9 257 -999
2010-04-06 11:24:20 51°33.01 2°55.923 69 0.9 257 -999
2010-04-06 11:24:30 51°33.009 2°55.919 69 0.9 257 -999
2010-04-06 11:24:40 51°33.008 2°55.915 69 0.9 257 -999
2010-04-06 11:24:50 51°33.008 2°55.911 69 0.9 257 -999
2010-04-06 11:25:00 51°33.008 2°55.91 68.4 0.29 295 -999
2010-04-06 11:25:10 51°33.009 2°55.911 68.4 0.29 295 -999
2010-04-06 11:25:20 51°33.01 2°55.917 68.4 0.29 295 -999
2010-04-06 11:25:30 51°33.013 2°55.928 68.4 0.29 295 -999
2010-04-06 11:25:40 51°33.016 2°55.944 68.4 0.29 295 -999
2010-04-06 11:25:50 51°33.02 2°55.964 68.4 0.29 295 -999
2010-04-06 11:26:00 51°33.025 2°55.987 71 5.59 72 -999
2010-04-06 11:26:10 51°33.03 2°56.013 71 5.59 72 -999
2010-04-06 11:26:20 51°33.037 2°56.04 71 5.59 72 -999
2010-04-06 11:26:30 51°33.045 2°56.068 71 5.59 72 -999
2010-04-06 11:26:40 51°33.054 2°56.096 71 5.59 72 -999
2010-04-06 11:26:50 51°33.063 2°56.122 71 5.59 72 -999
2010-04-06 11:27:00 51°33.073 2°56.145 57.1 6.09 56 -999
2010-04-06 11:27:10 51°33.083 2°56.166 57.1 6.09 56 -999
2010-04-06 11:27:20 51°33.094 2°56.187 57.1 6.09 56 -999
2010-04-06 11:27:30 51°33.103 2°56.204 57.1 6.09 56 -999
2010-04-06 11:27:40 51°33.113 2°56.221 57.1 6.09 56 -999
2010-04-06 11:27:50 51°33.124 2°56.236 57.1 6.09 56 -999
2010-04-06 11:28:00 51°33.136 2°56.253 42.8 5.29 39 -999
2010-04-06 11:28:10 51°33.146 2°56.265 42.8 5.29 39 -999
2010-04-06 11:28:20 51°33.158 2°56.279 42.8 5.29 39 -999
2010-04-06 11:28:30 51°33.167 2°56.292 42.8 5.29 39 -999
2010-04-06 11:28:40 51°33.173 2°56.308 42.8 5.29 39 -999
2010-04-06 11:28:50 51°33.177 2°56.324 42.8 5.29 39 -999
2010-04-06 11:29:00 51°33.178 2°56.342 79.7 3.7 88 -999
2010-04-06 11:29:10 51°33.176 2°56.357 79.7 3.7 88 -999
2010-04-06 11:29:20 51°33.173 2°56.371 79.7 3.7 88 -999
2010-04-06 11:29:30 51°33.168 2°56.385 79.7 3.7 88 -999
2010-04-06 11:29:40 51°33.161 2°56.396 79.7 3.7 88 -999
2010-04-06 11:29:50 51°33.153 2°56.405 79.7 3.7 88 -999
2010-04-06 11:30:00 51°33.143 2°56.412 143.5 3.7 156 -999
2010-04-06 11:30:10 51°33.132 2°56.417 143.5 3.7 156 -999
2010-04-06 11:30:20 51°33.121 2°56.418 143.5 3.7 156 -999
2010-04-06 11:30:30 51°33.11 2°56.415 143.5 3.7 156 -999
2010-04-06 11:30:40 51°33.096 2°56.409 143.5 3.7 156 -999
2010-04-06 11:30:50 51°33.086 2°56.399 143.5 3.7 156 -999
2010-04-06 11:31:00 51°33.076 2°56.385 217.8 4.9 224 -999
2010-04-06 11:31:10 51°33.068 2°56.369 217.8 4.9 224 -999
2010-04-06 11:31:20 51°33.062 2°56.352 217.8 4.9 224 -999
2010-04-06 11:31:30 51°33.058 2°56.335 217.8 4.9 224 -999
2010-04-06 11:31:40 51°33.055 2°56.318 217.8 4.9 224 -999
2010-04-06 11:31:50 51°33.054 2°56.301 217.8 4.9 224 -999
2010-04-06 11:32:00 51°33.054 2°56.284 281.8 3.7 271 -999
2010-04-06 11:32:10 51°33.055 2°56.267 281.8 3.7 271 -999
2010-04-06 11:32:20 51°33.056 2°56.248 281.8 3.7 271 -999
2010-04-06 11:32:30 51°33.057 2°56.232 281.8 3.7 271 -999
2010-04-06 11:32:40 51°33.058 2°56.213 281.8 3.7 271 -999
2010-04-06 11:32:50 51°33.059 2°56.196 281.8 3.7 271 -999
2010-04-06 11:33:00 51°33.06 2°56.178 285.3 4.2 275 -999
2010-04-06 11:33:10 51°33.06 2°56.159 285.3 4.2 275 -999
2010-04-06 11:33:20 51°33.061 2°56.137 285.3 4.2 275 -999
2010-04-06 11:33:30 51°33.062 2°56.12 285.3 4.2 275 -999
2010-04-06 11:33:40 51°33.064 2°56.102 285.3 4.2 275 -999
2010-04-06 11:33:50 51°33.067 2°56.084 285.3 4.2 275 -999
2010-04-06 11:34:00 51°33.071 2°56.069 306.6 3.7 294 -999
2010-04-06 11:34:10 51°33.076 2°56.055 306.6 3.7 294 -999
2010-04-06 11:34:20 51°33.081 2°56.044 306.6 3.7 294 -999
2010-04-06 11:34:30 51°33.087 2°56.035 306.6 3.7 294 -999
2010-04-06 11:34:40 51°33.094 2°56.028 306.6 3.7 294 -999
2010-04-06 11:34:50 51°33.1 2°56.022 306.6 3.7 294 -999
2010-04-06 11:35:00 51°33.107 2°56.019 2.6 2.39 348 -999
2010-04-06 11:35:10 51°33.113 2°56.019 2.6 2.39 348 -999
2010-04-06 11:35:20 51°33.119 2°56.019 2.6 2.39 348 -999
2010-04-06 11:35:30 51°33.124 2°56.022 2.6 2.39 348 -999
2010-04-06 11:35:40 51°33.13 2°56.026 2.6 2.39 348 -999
2010-04-06 11:35:50 51°33.135 2°56.031 2.6 2.39 348 -999
2010-04-06 11:36:00 51°33.142 2°56.038 39.3 2.79 32 -999
2010-04-06 11:36:10 51°33.149 2°56.045 39.3 2.79 32 -999
2010-04-06 11:36:20 51°33.156 2°56.052 39.3 2.79 32 -999
2010-04-06 11:36:30 51°33.164 2°56.061 39.3 2.79 32 -999
2010-04-06 11:36:40 51°33.172 2°56.069 39.3 2.79 32 -999
2010-04-06 11:36:50 51°33.18 2°56.078 39.3 2.79 32 -999
2010-04-06 11:37:00 51°33.19 2°56.088 37.7 3.79 32 -999
2010-04-06 11:37:10 51°33.199 2°56.097 37.7 3.79 32 -999
2010-04-06 11:37:20 51°33.208 2°56.106 37.7 3.79 32 -999
2010-04-06 11:37:30 51°33.218 2°56.115 37.7 3.79 32 -999
2010-04-06 11:37:40 51°33.228 2°56.124 37.7 3.79 32 -999
2010-04-06 11:37:50 51°33.239 2°56.132 37.7 3.79 32 -999
2010-04-06 11:38:00 51°33.249 2°56.138 28 4.2 19 -999
2010-04-06 11:38:10 51°33.26 2°56.141 28 4.2 19 -999
2010-04-06 11:38:20 51°33.272 2°56.141 28 4.2 19 -999
2010-04-06 11:38:30 51°33.283 2°56.138 28 4.2 19 -999
2010-04-06 11:38:40 51°33.294 2°56.132 28 4.2 19 -999
2010-04-06 11:38:50 51°33.305 2°56.123 28 4.2 19 -999
2010-04-06 11:39:00 51°33.314 2°56.111 337.1 4.4 320 -999
2010-04-06 11:39:10 51°33.323 2°56.097 337.1 4.4 320 -999
2010-04-06 11:39:20 51°33.331 2°56.079 337.1 4.4 320 -999
2010-04-06 11:39:30 51°33.336 2°56.062 337.1 4.4 320 -999
2010-04-06 11:39:40 51°33.341 2°56.042 337.1 4.4 320 -999
2010-04-06 11:39:50 51°33.345 2°56.02 337.1 4.4 320 -999
2010-04-06 11:40:00 51°33.348 2°55.996 292.3 6.2 283 -999
2010-04-06 11:40:10 51°33.352 2°55.966 292.3 6.2 283 -999
2010-04-06 11:40:20 51°33.356 2°55.927 292.3 6.2 283 -999
2010-04-06 11:40:30 51°33.36 2°55.891 292.3 6.2 283 -999
2010-04-06 11:40:40 51°33.367 2°55.844 292.3 6.2 283 -999
2010-04-06 11:40:50 51°33.373 2°55.805 292.3 6.2 283 -999
2010-04-06 11:41:00 51°33.382 2°55.755 293.3 10.59 287 -999
2010-04-06 11:41:10 51°33.39 2°55.709 293.3 10.59 287 -999
2010-04-06 11:41:20 51°33.394 2°55.661 293.3 10.59 287 -999
2010-04-06 11:41:30 51°33.395 2°55.616 293.3 10.59 287 -999
2010-04-06 11:41:40 51°33.394 2°55.566 293.3 10.59 287 -999
2010-04-06 11:41:50 51°33.39 2°55.516 293.3 10.59 287 -999
2010-04-06 11:42:00 51°33.383 2°55.467 261.8 11.4 258 -999
2010-04-06 11:42:10 51°33.375 2°55.418 261.8 11.4 258 -999
2010-04-06 11:42:20 51°33.364 2°55.37 261.8 11.4 258 -999
2010-04-06 11:42:30 51°33.35 2°55.326 261.8 11.4 258 -999
2010-04-06 11:42:40 51°33.333 2°55.282 261.8 11.4 258 -999
2010-04-06 11:42:50 51°33.316 2°55.238 261.8 11.4 258 -999
2010-04-06 11:43:00 51°33.298 2°55.196 236.3 11.5 233 -999
2010-04-06 11:43:10 51°33.276 2°55.158 236.3 11.5 233 -999
2010-04-06 11:43:20 51°33.252 2°55.125 236.3 11.5 233 -999
2010-04-06 11:43:30 51°33.227 2°55.095 236.3 11.5 233 -999
2010-04-06 11:43:40 51°33.201 2°55.066 236.3 11.5 233 -999
2010-04-06 11:43:50 51°33.175 2°55.038 236.3 11.5 233 -999
2010-04-06 11:44:00 51°33.148 2°55.012 208.8 11.3 208 -999
2010-04-06 11:44:10 51°33.119 2°54.996 208.8 11.3 208 -999
2010-04-06 11:44:20 51°33.091 2°54.991 208.8 11.3 208 -999
2010-04-06 11:44:30 51°33.062 2°54.994 208.8 11.3 208 -999
2010-04-06 11:44:40 51°33.035 2°55.004 208.8 11.3 208 -999
2010-04-06 11:44:50 51°33.009 2°55.022 208.8 11.3 208 -999
2010-04-06 11:45:00 51°32.985 2°55.049 141.3 9.59 143 -999
2010-04-06 11:45:10 51°32.969 2°55.073 141.3 9.59 143 -999
2010-04-06 11:45:20 51°32.95 2°55.102 141.3 9.59 143 -999
2010-04-06 11:45:30 51°32.936 2°55.125 141.3 9.59 143 -999
2010-04-06 11:45:40 51°32.919 2°55.153 141.3 9.59 143 -999
2010-04-06 11:45:50 51°32.905 2°55.178 141.3 9.59 143 -999
2010-04-06 11:46:00 51°32.892 2°55.2 125.2 7.5 131 -999
2010-04-06 11:46:10 51°32.878 2°55.224 125.2 7.5 131 -999
2010-04-06 11:46:20 51°32.864 2°55.247 125.2 7.5 131 -999
2010-04-06 11:46:30 51°32.85 2°55.268 125.2 7.5 131 -999
2010-04-06 11:46:40 51°32.837 2°55.287 125.2 7.5 131 -999
2010-04-06 11:46:50 51°32.825 2°55.304 125.2 7.5 131 -999
2010-04-06 11:47:00 51°32.815 2°55.32 126.2 5.09 137 -999
2010-04-06 11:47:10 51°32.805 2°55.334 126.2 5.09 137 -999
2010-04-06 11:47:20 51°32.796 2°55.348 126.2 5.09 137 -999
2010-04-06 11:47:30 51°32.788 2°55.361 126.2 5.09 137 -999
2010-04-06 11:47:40 51°32.782 2°55.372 126.2 5.09 137 -999
2010-04-06 11:47:50 51°32.776 2°55.383 126.2 5.09 137 -999
2010-04-06 11:48:00 51°32.771 2°55.394 106 2.7 122 -999
2010-04-06 11:48:10 51°32.768 2°55.403 106 2.7 122 -999
2010-04-06 11:48:20 51°32.766 2°55.41 106 2.7 122 -999
2010-04-06 11:48:30 51°32.764 2°55.413 106 2.7 122 -999
2010-04-06 11:48:40 51°32.762 2°55.415 106 2.7 122 -999
2010-04-06 11:48:50 51°32.76 2°55.413 106 2.7 122 -999
2010-04-06 11:49:00 51°32.759 2°55.411 74.7 0.8 226 -999
2010-04-06 11:49:10 51°32.757 2°55.408 74.7 0.8 226 -999
2010-04-06 11:49:20 51°32.755 2°55.405 74.7 0.8 226 -999
2010-04-06 11:49:30 51°32.754 2°55.403 74.7 0.8 226 -999
2010-04-06 11:49:40 51°32.753 2°55.4 74.7 0.8 226 -999
2010-04-06 11:49:50 51°32.751 2°55.397 74.7 0.8 226 -999
2010-04-06 11:50:00 51°32.75 2°55.394 51.1 0.8 233 -999
2010-04-06 11:50:10 51°32.749 2°55.391 51.1 0.8 233 -999
2010-04-06 11:50:20 51°32.747 2°55.388 51.1 0.8 233 -999
2010-04-06 11:50:30 51°32.746 2°55.385 51.1 0.8 233 -999
2010-04-06 11:50:40 51°32.745 2°55.381 51.1 0.8 233 -999
2010-04-06 11:50:50 51°32.745 2°55.378 51.1 0.8 233 -999
2010-04-06 11:51:00 51°32.744 2°55.375 39 0.69 247 -999
2010-04-06 11:51:10 51°32.743 2°55.372 39 0.69 247 -999
2010-04-06 11:51:20 51°32.742 2°55.369 39 0.69 247 -999
2010-04-06 11:51:30 51°32.742 2°55.365 39 0.69 247 -999
2010-04-06 11:51:40 51°32.741 2°55.362 39 0.69 247 -999
2010-04-06 11:51:50 51°32.74 2°55.359 39 0.69 247 -999
2010-04-06 11:52:00 51°32.74 2°55.356 37.5 0.69 256 -999
2010-04-06 11:52:10 51°32.739 2°55.353 37.5 0.69 256 -999
2010-04-06 11:52:20 51°32.739 2°55.35 37.5 0.69 256 -999
2010-04-06 11:52:30 51°32.738 2°55.347 37.5 0.69 256 -999
2010-04-06 11:52:40 51°32.737 2°55.345 37.5 0.69 256 -999
2010-04-06 11:52:50 51°32.737 2°55.342 37.5 0.69 256 -999
2010-04-06 11:53:00 51°32.736 2°55.339 45.7 0.69 244 -999
2010-04-06 11:53:10 51°32.736 2°55.336 45.7 0.69 244 -999
2010-04-06 11:53:20 51°32.735 2°55.334 45.7 0.69 244 -999
2010-04-06 11:53:30 51°32.735 2°55.331 45.7 0.69 244 -999
2010-04-06 11:53:40 51°32.734 2°55.329 45.7 0.69 244 -999
2010-04-06 11:53:50 51°32.733 2°55.327 45.7 0.69 244 -999
2010-04-06 11:54:00 51°32.732 2°55.324 54.6 0.59 243 -999
2010-04-06 11:54:10 51°32.731 2°55.322 54.6 0.59 243 -999
2010-04-06 11:54:20 51°32.73 2°55.32 54.6 0.59 243 -999
2010-04-06 11:54:30 51°32.729 2°55.317 54.6 0.59 243 -999
2010-04-06 11:54:40 51°32.728 2°55.315 54.6 0.59 243 -999
2010-04-06 11:54:50 51°32.727 2°55.312 54.6 0.59 243 -999
2010-04-06 11:55:00 51°32.726 2°55.309 61.5 0.8 236 -999
2010-04-06 11:55:10 51°32.725 2°55.307 61.5 0.8 236 -999
2010-04-06 11:55:20 51°32.723 2°55.304 61.5 0.8 236 -999
2010-04-06 11:55:30 51°32.721 2°55.301 61.5 0.8 236 -999
2010-04-06 11:55:40 51°32.72 2°55.298 61.5 0.8 236 -999
2010-04-06 11:55:50 51°32.719 2°55.295 61.5 0.8 236 -999
2010-04-06 11:56:00 51°32.718 2°55.292 67.2 0.9 234 -999
2010-04-06 11:56:10 51°32.717 2°55.289 67.2 0.9 234 -999
2010-04-06 11:56:20 51°32.716 2°55.286 67.2 0.9 234 -999
2010-04-06 11:56:30 51°32.715 2°55.283 67.2 0.9 234 -999
2010-04-06 11:56:40 51°32.714 2°55.28 67.2 0.9 234 -999